Time;durP1;ratioP1;P1;durP2;ratioP2;P2;SDS_P1;SDS_P2;PMS_P1;PMS_P2;Temp;Humidity;BMP_temperature;BMP_pressure;BME280_temperature;BME280_humidity;BME280_pressure;Samples;Min_cycle;Max_cycle;Signal;HPM_P1;HPM_P2
2021/05/20 00:00:55;;;;;;;;;;;;;;;20.06;51.73;98556.00;5092555;28;19913;-37
2021/05/20 00:03:20;;;;;;;;;;;;;;;20.09;51.54;98563.50;5092627;28;20252;-37
2021/05/20 00:05:45;;;;;;;;;;;;;;;19.94;51.37;98563.75;5092487;28;19916;-37
2021/05/20 00:08:10;;;;;;;;;;;;;;;19.85;50.67;98569.81;5092789;28;19912;-37
2021/05/20 00:10:37;;;;;;;;;;;;;;;19.52;51.36;98558.91;5092539;28;20435;-38
2021/05/20 00:13:02;;;;;;;;;;;;;;;19.45;51.25;98560.38;5092307;28;20382;-38
2021/05/20 00:15:27;;;;;;;;;;;;;;;19.44;51.29;98545.25;5092382;28;20375;-38
2021/05/20 00:17:53;;;;;;;;;;;;;;;18.68;52.40;98547.78;5092325;28;20004;-38
2021/05/20 00:20:18;;;;;;;;;;;;;;;19.00;51.45;98559.84;5092167;28;19923;-36
2021/05/20 00:22:43;;;;;;;;;;;;;;;18.89;52.00;98559.19;5095958;28;19935;-37
2021/05/20 00:25:09;;;;;;;;;;;;;;;19.42;50.42;98550.16;5112397;28;20344;-39
2021/05/20 00:27:34;;;;;;;;;;;;;;;19.32;50.06;98548.38;5112630;28;19915;-38
2021/05/20 00:29:59;;;;;;;;;;;;;;;19.71;49.72;98542.72;5112609;28;20398;-38
2021/05/20 00:32:25;;;;;;;;;;;;;;;19.87;49.21;98542.53;5112417;28;19912;-38
2021/05/20 00:34:50;;;;;;;;;;;;;;;19.71;50.04;98540.03;5111039;28;19981;-39
2021/05/20 00:37:16;;;;;;;;;;;;;;;19.80;48.78;98534.81;5112330;28;19916;-38
2021/05/20 00:39:41;;;;;;;;;;;;;;;19.89;48.30;98533.03;5112148;28;19911;-38
2021/05/20 00:42:10;;;;;;;;;;;;;;;19.22;50.67;98524.25;5112116;28;20290;-38
2021/05/20 00:44:50;;;;;;;;;;;;;;;18.75;50.09;98522.09;5112273;28;19911;-38
2021/05/20 00:47:19;;;;;;;;;;;;;;;18.95;49.69;98539.94;5111984;28;20406;-38
2021/05/20 00:49:45;;;;;;;;;;;;;;;19.44;48.32;98539.88;5111181;28;19935;-38
2021/05/20 00:52:10;;;;;;;;;;;;;;;19.38;49.13;98547.25;5111128;28;20347;-36
2021/05/20 00:54:35;;;;;;;;;;;;;;;19.43;48.46;98543.66;5091290;28;19974;-37
2021/05/20 00:57:01;;;;;;;;;;;;;;;19.43;48.80;98547.16;5090950;28;19924;-37
2021/05/20 00:59:26;;;;;;;;;;;;;;;19.34;48.18;98549.72;5089728;28;19938;-38
2021/05/20 01:01:51;;;;;;;;;;;;;;;19.47;48.01;98544.69;5091725;28;19913;-38
2021/05/20 01:04:16;;;;;;;;;;;;;;;19.66;47.53;98558.97;5089985;28;19929;-37
2021/05/20 01:06:42;;;;;;;;;;;;;;;19.94;46.59;98539.47;5091463;28;19960;-38
2021/05/20 01:09:07;;;;;;;;;;;;;;;20.17;48.87;98541.22;5091089;28;19915;-38
2021/05/20 01:11:33;;;;;;;;;;;;;;;20.14;45.94;98539.09;5091307;28;20332;-37
2021/05/20 01:13:58;;;;;;;;;;;;;;;20.17;47.05;98535.81;5089981;28;19924;-37
2021/05/20 01:16:24;;;;;;;;;;;;;;;19.70;46.53;98529.53;5091575;28;19920;-37
2021/05/20 01:18:50;;;;;;;;;;;;;;;19.77;46.44;98529.97;5092108;28;19912;-37
2021/05/20 01:21:16;;;;;;;;;;;;;;;19.48;47.06;98533.63;5091754;28;20030;-37
2021/05/20 01:23:42;;;;;;;;;;;;;;;19.41;47.23;98537.78;5090584;28;20338;-37
2021/05/20 01:26:08;;;;;;;;;;;;;;;18.94;48.28;98532.97;5090317;28;19935;-37
2021/05/20 01:28:34;;;;;;;;;;;;;;;19.34;48.49;98530.03;5091429;28;20300;-37
2021/05/20 01:31:00;;;;;;;;;;;;;;;19.46;48.50;98535.00;5091227;28;19974;-37
2021/05/20 01:33:25;;;;;;;;;;;;;;;19.72;46.90;98520.09;5091536;28;20454;-37
2021/05/20 01:35:50;;;;;;;;;;;;;;;19.68;47.15;98518.22;5091632;28;20313;-38
2021/05/20 01:40:53;;;;;;;;;;;;;;;19.47;47.33;98518.50;5091330;28;19916;-38
2021/05/20 01:43:18;;;;;;;;;;;;;;;19.67;46.50;98516.63;5091339;28;19912;-37
2021/05/20 01:45:49;;;;;;;;;;;;;;;19.68;46.74;98518.22;5091724;28;19913;-37
2021/05/20 01:48:14;;;;;;;;;;;;;;;19.66;46.44;98515.81;5091327;28;20375;-37
2021/05/20 01:50:39;;;;;;;;;;;;;;;19.22;47.35;98514.28;5091021;28;19919;-37
2021/05/20 01:53:05;;;;;;;;;;;;;;;19.15;47.25;98503.03;5091826;28;19919;-38
2021/05/20 01:55:30;;;;;;;;;;;;;;;19.54;46.57;98494.66;5094173;28;19954;-37
2021/05/20 01:57:55;;;;;;;;;;;;;;;19.71;46.28;98504.94;5095650;28;19962;-37
2021/05/20 02:00:21;;;;;;;;;;;;;;;19.14;47.39;98499.53;5095644;28;19982;-37
2021/05/20 02:02:46;;;;;;;;;;;;;;;18.95;48.06;98502.22;5095248;28;19916;-37
2021/05/20 02:05:11;;;;;;;;;;;;;;;19.22;47.52;98506.19;5095601;28;19912;-37
2021/05/20 02:07:36;;;;;;;;;;;;;;;19.38;46.82;98508.66;5095458;28;19912;-37
2021/05/20 02:10:02;;;;;;;;;;;;;;;19.02;47.97;98512.66;5095491;28;19951;-38
2021/05/20 02:12:27;;;;;;;;;;;;;;;18.93;48.47;98499.00;5095365;28;19916;-38
2021/05/20 02:14:52;;;;;;;;;;;;;;;19.00;47.95;98503.22;5095281;28;19920;-38
2021/05/20 02:17:17;;;;;;;;;;;;;;;19.21;48.20;98498.38;5095365;28;19985;-38
2021/05/20 02:19:43;;;;;;;;;;;;;;;19.21;47.32;98492.97;5095235;28;19912;-37
2021/05/20 02:22:08;;;;;;;;;;;;;;;19.21;47.68;98499.19;5095229;28;19999;-38
2021/05/20 02:24:33;;;;;;;;;;;;;;;19.22;47.22;98498.09;5094946;28;19912;-37
2021/05/20 02:26:59;;;;;;;;;;;;;;;19.28;46.98;98493.44;5095088;28;19913;-38
2021/05/20 02:29:24;;;;;;;;;;;;;;;19.25;47.27;98502.13;5094786;28;20372;-38
2021/05/20 02:31:49;;;;;;;;;;;;;;;19.26;47.33;98498.31;5094996;28;19919;-36
2021/05/20 02:34:14;;;;;;;;;;;;;;;19.26;47.29;98496.41;5094759;28;19912;-37
2021/05/20 02:36:40;;;;;;;;;;;;;;;19.35;46.75;98501.97;5094831;28;19934;-37
2021/05/20 02:39:05;;;;;;;;;;;;;;;19.49;46.47;98494.75;5094811;28;20012;-37
2021/05/20 02:41:30;;;;;;;;;;;;;;;19.29;46.76;98492.34;5094763;28;19918;-38
2021/05/20 02:43:56;;;;;;;;;;;;;;;19.16;47.24;98496.56;5094689;28;20015;-38
2021/05/20 02:46:21;;;;;;;;;;;;;;;19.34;46.51;98505.75;5094531;28;19919;-37
2021/05/20 02:48:46;;;;;;;;;;;;;;;19.39;46.49;98500.28;5093577;28;19916;-38
2021/05/20 02:51:11;;;;;;;;;;;;;;;19.49;46.41;98502.81;5094461;28;19923;-38
2021/05/20 02:53:37;;;;;;;;;;;;;;;19.40;46.54;98509.19;5094544;28;19954;-38
2021/05/20 02:56:02;;;;;;;;;;;;;;;19.52;46.35;98509.56;5094523;28;19971;-37
2021/05/20 02:58:27;;;;;;;;;;;;;;;19.40;46.25;98514.56;5093825;28;19946;-37
2021/05/20 03:00:53;;;;;;;;;;;;;;;19.24;46.28;98520.19;5094060;28;19912;-38
2021/05/20 03:03:18;;;;;;;;;;;;;;;19.22;46.24;98519.66;5093978;28;20388;-38
2021/05/20 03:05:43;;;;;;;;;;;;;;;19.05;46.65;98520.16;5094820;28;19916;-38
2021/05/20 03:08:09;;;;;;;;;;;;;;;19.32;46.10;98516.03;5094311;28;20241;-38
2021/05/20 03:10:34;;;;;;;;;;;;;;;19.41;45.92;98505.41;5093902;28;19912;-38
2021/05/20 03:13:00;;;;;;;;;;;;;;;19.33;46.54;98512.25;5094035;28;20237;-38
2021/05/20 03:15:25;;;;;;;;;;;;;;;19.47;46.00;98496.94;5094012;28;19920;-38
2021/05/20 03:17:50;;;;;;;;;;;;;;;19.20;46.22;98500.28;5093576;28;19912;-38
2021/05/20 03:20:16;;;;;;;;;;;;;;;19.07;46.60;98496.41;5093848;28;19916;-38
2021/05/20 03:22:41;;;;;;;;;;;;;;;18.83;47.00;98498.31;5094009;28;19915;-38
2021/05/20 03:25:07;;;;;;;;;;;;;;;18.94;47.65;98515.97;5093949;28;20365;-38
2021/05/20 03:27:32;;;;;;;;;;;;;;;19.10;46.64;98520.09;5093378;28;19912;-37
2021/05/20 03:29:57;;;;;;;;;;;;;;;19.09;46.80;98526.56;5093683;28;19951;-38
2021/05/20 03:32:23;;;;;;;;;;;;;;;19.23;46.53;98528.56;5094026;28;19919;-38
2021/05/20 03:34:48;;;;;;;;;;;;;;;19.21;46.25;98520.78;5093449;28;20376;-38
2021/05/20 03:37:13;;;;;;;;;;;;;;;19.05;46.92;98514.75;5090908;28;19918;-38
2021/05/20 03:39:38;;;;;;;;;;;;;;;19.27;46.56;98510.72;5093663;28;19966;-37
2021/05/20 03:42:04;;;;;;;;;;;;;;;19.25;46.42;98505.63;5093503;28;20335;-38
2021/05/20 03:44:30;;;;;;;;;;;;;;;19.12;46.75;98504.44;5074380;28;19912;-37
2021/05/20 03:46:55;;;;;;;;;;;;;;;19.10;46.94;98519.28;5072976;28;20023;-38
2021/05/20 03:49:21;;;;;;;;;;;;;;;18.96;47.09;98519.19;5073194;28;20390;-38
2021/05/20 03:51:46;;;;;;;;;;;;;;;19.03;46.97;98521.53;5073654;28;19925;-38
2021/05/20 03:54:11;;;;;;;;;;;;;;;19.22;46.61;98527.75;5072630;28;20355;-37
2021/05/20 03:56:37;;;;;;;;;;;;;;;19.20;46.63;98535.34;5072754;28;19917;-37
2021/05/20 03:59:03;;;;;;;;;;;;;;;19.09;46.98;98525.78;5072942;28;19913;-36
2021/05/20 04:01:28;;;;;;;;;;;;;;;19.25;46.96;98535.28;5072764;28;19913;-38
2021/05/20 04:03:53;;;;;;;;;;;;;;;19.66;46.59;98534.69;5073118;28;20291;-38
2021/05/20 04:06:18;;;;;;;;;;;;;;;19.62;45.60;98530.97;5072684;28;20023;-38
2021/05/20 04:08:44;;;;;;;;;;;;;;;19.34;46.36;98541.63;5074304;28;19970;-38
2021/05/20 04:11:09;;;;;;;;;;;;;;;19.48;46.01;98552.50;5092061;28;19916;-38
2021/05/20 04:13:35;;;;;;;;;;;;;;;19.54;45.93;98562.13;5091997;28;19924;-38
2021/05/20 04:16:00;;;;;;;;;;;;;;;19.72;45.80;98571.38;5091969;28;19923;-38
2021/05/20 04:18:26;;;;;;;;;;;;;;;19.92;45.24;98567.53;5091374;28;20318;-37
2021/05/20 04:20:51;;;;;;;;;;;;;;;20.07;45.22;98568.41;5091878;28;19920;-37
2021/05/20 04:23:16;;;;;;;;;;;;;;;20.52;44.24;98566.00;5100421;28;19923;-37
2021/05/20 04:25:42;;;;;;;;;;;;;;;21.11;43.22;98568.19;5103932;28;19912;-38
2021/05/20 04:28:07;;;;;;;;;;;;;;;22.11;41.74;98589.84;5091777;28;19983;-38
2021/05/20 04:30:32;;;;;;;;;;;;;;;23.07;40.81;98598.56;5091659;28;19919;-38
2021/05/20 04:32:58;;;;;;;;;;;;;;;22.74;40.40;98607.00;5090784;28;19912;-38
2021/05/20 04:35:23;;;;;;;;;;;;;;;22.26;40.72;98615.81;5091159;28;19916;-38
2021/05/20 04:37:48;;;;;;;;;;;;;;;22.33;41.18;98609.94;5091646;28;20010;-37
2021/05/20 04:40:14;;;;;;;;;;;;;;;22.05;41.62;98601.91;5091225;28;19934;-38
2021/05/20 04:42:39;;;;;;;;;;;;;;;21.53;42.06;98594.13;5091405;28;20002;-38
2021/05/20 04:45:05;;;;;;;;;;;;;;;21.66;41.97;98604.13;5091264;28;19918;-38
2021/05/20 04:47:30;;;;;;;;;;;;;;;22.27;42.36;98622.81;5091390;28;19953;-38
2021/05/20 04:49:55;;;;;;;;;;;;;;;22.13;41.25;98622.06;5090913;28;19912;-36
2021/05/20 04:52:21;;;;;;;;;;;;;;;21.46;42.74;98626.22;5091053;28;20019;-37
2021/05/20 04:54:46;;;;;;;;;;;;;;;21.82;42.30;98625.47;5090424;28;20033;-38
2021/05/20 04:57:12;;;;;;;;;;;;;;;22.15;41.51;98626.06;5091047;28;19912;-38
2021/05/20 04:59:37;;;;;;;;;;;;;;;22.50;40.83;98639.06;5090820;28;19920;-38
2021/05/20 05:02:02;;;;;;;;;;;;;;;22.13;41.64;98647.22;5090421;28;19912;-37
2021/05/20 05:04:27;;;;;;;;;;;;;;;21.44;42.94;98634.63;5089910;28;19912;-38
2021/05/20 05:06:53;;;;;;;;;;;;;;;21.60;42.25;98637.81;5090354;28;20013;-37
2021/05/20 05:09:18;;;;;;;;;;;;;;;21.89;42.37;98647.50;5090389;28;19912;-38
2021/05/20 05:11:43;;;;;;;;;;;;;;;21.73;42.09;98649.75;5090848;28;19954;-38
2021/05/20 05:14:08;;;;;;;;;;;;;;;21.51;43.26;98644.25;5084612;28;19929;-38
2021/05/20 05:16:34;;;;;;;;;;;;;;;21.29;43.49;98646.53;5079462;28;19920;-38
2021/05/20 05:18:59;;;;;;;;;;;;;;;21.12;43.54;98645.53;5095158;27;19916;-38
2021/05/20 05:21:24;;;;;;;;;;;;;;;20.93;44.25;98656.44;5069984;28;19913;-38
2021/05/20 05:23:50;;;;;;;;;;;;;;;20.81;45.08;98655.00;5095162;28;19994;-38
2021/05/20 05:26:15;;;;;;;;;;;;;;;21.17;43.99;98661.66;5110853;28;19919;-38
2021/05/20 05:28:40;;;;;;;;;;;;;;;20.16;45.99;98657.66;5109065;28;20302;-38
2021/05/20 05:31:07;;;;;;;;;;;;;;;20.59;45.23;98660.22;5109758;28;19912;-38
2021/05/20 05:33:32;;;;;;;;;;;;;;;20.42;45.63;98658.06;5110003;28;19981;-38
2021/05/20 05:35:57;;;;;;;;;;;;;;;20.63;45.61;98662.06;5109934;28;19912;-38
2021/05/20 05:38:23;;;;;;;;;;;;;;;20.20;46.34;98658.66;5110129;28;20018;-37
2021/05/20 05:40:48;;;;;;;;;;;;;;;20.03;47.04;98656.47;5110283;28;19912;-36
2021/05/20 05:43:15;;;;;;;;;;;;;;;20.76;46.06;98657.78;5109114;28;19916;-36
2021/05/20 05:45:40;;;;;;;;;;;;;;;20.43;46.49;98643.47;5110762;28;19911;-38
2021/05/20 05:48:10;;;;;;;;;;;;;;;20.44;46.54;98648.56;5110990;28;19923;-38
2021/05/20 05:50:35;;;;;;;;;;;;;;;20.70;46.11;98642.78;5103233;28;20332;-38
2021/05/20 05:53:03;;;;;;;;;;;;;;;20.83;45.21;98644.69;5090215;28;20391;-37
2021/05/20 05:55:28;;;;;;;;;;;;;;;20.56;45.81;98640.00;5090064;28;19951;-36
2021/05/20 05:57:53;;;;;;;;;;;;;;;20.51;46.32;98656.31;5090320;28;19951;-37
2021/05/20 06:00:19;;;;;;;;;;;;;;;20.16;46.71;98644.94;5090411;28;19919;-38
2021/05/20 06:02:45;;;;;;;;;;;;;;;20.82;45.39;98648.50;5090633;28;20074;-37
2021/05/20 06:05:10;;;;;;;;;;;;;;;20.81;44.86;98646.91;5090639;28;19912;-37
2021/05/20 06:07:35;;;;;;;;;;;;;;;21.24;44.09;98649.34;5089414;28;19912;-37
2021/05/20 06:10:04;;;;;;;;;;;;;;;21.63;43.10;98658.09;5090304;28;19939;-37
2021/05/20 06:12:29;;;;;;;;;;;;;;;21.60;43.21;98655.97;5090099;28;20386;-37
2021/05/20 06:14:54;;;;;;;;;;;;;;;22.29;41.79;98657.75;5090182;28;19925;-38
2021/05/20 06:17:20;;;;;;;;;;;;;;;22.29;40.91;98658.53;5090044;28;20412;-38
2021/05/20 06:19:45;;;;;;;;;;;;;;;22.90;39.76;98663.56;5090437;28;19912;-37
2021/05/20 06:22:10;;;;;;;;;;;;;;;23.50;38.62;98656.81;5090204;28;19912;-38
2021/05/20 06:24:36;;;;;;;;;;;;;;;24.50;36.95;98663.28;5086052;28;20383;-38
2021/05/20 06:27:01;;;;;;;;;;;;;;;24.57;36.98;98671.78;5089981;28;20116;-38
2021/05/20 06:29:26;;;;;;;;;;;;;;;24.33;36.83;98661.38;5122042;28;19920;-38
2021/05/20 06:31:51;;;;;;;;;;;;;;;24.78;35.76;98656.38;5084504;28;19934;-37
2021/05/20 06:34:17;;;;;;;;;;;;;;;24.47;35.55;98656.59;5089471;28;19916;-37
2021/05/20 06:36:42;;;;;;;;;;;;;;;25.07;34.65;98654.84;5089024;28;20001;-38
2021/05/20 06:39:11;;;;;;;;;;;;;;;25.45;34.25;98661.44;5089339;28;19912;-38
2021/05/20 06:41:36;;;;;;;;;;;;;;;26.21;33.02;98656.97;5092079;28;19975;-38
2021/05/20 06:44:02;;;;;;;;;;;;;;;25.45;33.73;98659.50;5089009;28;20376;-38
2021/05/20 06:46:27;;;;;;;;;;;;;;;26.77;32.77;98668.34;5072726;28;19912;-38
2021/05/20 06:48:54;;;;;;;;;;;;;;;26.66;32.60;98669.91;5072717;28;20361;-37
2021/05/20 06:51:19;;;;;;;;;;;;;;;26.13;33.90;98661.34;5072708;28;19912;-38
2021/05/20 06:53:47;;;;;;;;;;;;;;;26.27;33.11;98648.25;5072804;28;20010;-38
2021/05/20 06:56:17;;;;;;;;;;;;;;;25.45;34.28;98662.25;5072815;28;19916;-36
2021/05/20 07:01:26;;;;;;;;;;;;;;;24.88;35.43;98659.88;5072556;28;19919;-37
2021/05/20 07:03:51;;;;;;;;;;;;;;;25.05;35.35;98668.00;5072308;28;19920;-38
2021/05/20 07:06:16;;;;;;;;;;;;;;;25.12;35.31;98678.38;5072489;28;19938;-37
2021/05/20 07:08:42;;;;;;;;;;;;;;;25.24;34.73;98677.72;5073407;28;19912;-37
2021/05/20 07:11:07;;;;;;;;;;;;;;;24.37;36.22;98670.53;5091102;28;20337;-37
2021/05/20 07:13:33;;;;;;;;;;;;;;;25.12;34.94;98670.22;5092084;28;19928;-38
2021/05/20 07:15:58;;;;;;;;;;;;;;;25.13;34.41;98675.34;5092175;28;19917;-39
2021/05/20 07:18:23;;;;;;;;;;;;;;;24.11;36.66;98673.25;5092448;28;19912;-38
2021/05/20 07:20:48;;;;;;;;;;;;;;;24.89;34.70;98670.44;5092490;28;20359;-38
2021/05/20 07:23:14;;;;;;;;;;;;;;;24.03;36.31;98666.69;5092333;28;19961;-36
2021/05/20 07:25:40;;;;;;;;;;;;;;;24.83;34.83;98674.47;5092338;28;19916;-37
2021/05/20 07:28:05;;;;;;;;;;;;;;;25.86;33.18;98670.84;5092340;28;19918;-38
2021/05/20 07:30:31;;;;;;;;;;;;;;;26.69;32.25;98669.22;5092414;28;20299;-38
2021/05/20 07:32:56;;;;;;;;;;;;;;;25.26;33.45;98667.31;5092417;28;19912;-38
2021/05/20 07:35:22;;;;;;;;;;;;;;;24.40;35.02;98662.50;5092166;28;20083;-38
2021/05/20 07:37:47;;;;;;;;;;;;;;;23.81;36.12;98654.81;5092227;28;19923;-38
2021/05/20 07:40:13;;;;;;;;;;;;;;;24.62;35.33;98668.09;5092300;28;19935;-37
2021/05/20 07:42:39;;;;;;;;;;;;;;;25.55;34.53;98669.22;5090827;28;19994;-38
2021/05/20 07:45:05;;;;;;;;;;;;;;;26.93;32.63;98673.94;5091838;28;19977;-38
2021/05/20 07:47:30;;;;;;;;;;;;;;;27.00;32.13;98676.91;5090533;28;19916;-38
2021/05/20 07:49:55;;;;;;;;;;;;;;;26.47;33.14;98673.91;5090590;28;19969;-38
2021/05/20 07:52:21;;;;;;;;;;;;;;;26.52;33.43;98679.16;5091442;28;19960;-38
2021/05/20 07:54:46;;;;;;;;;;;;;;;26.60;33.87;98672.03;5091908;28;19920;-38
2021/05/20 07:57:12;;;;;;;;;;;;;;;27.58;32.34;98671.41;5092100;28;20070;-38
2021/05/20 07:59:37;;;;;;;;;;;;;;;26.79;34.03;98678.91;5092184;28;20296;-36
2021/05/20 08:04:34;;;;;;;;;;;;;;;27.64;32.30;98683.69;5092115;28;20256;-37
2021/05/20 08:10:28;;;;;;;;;;;;;;;27.28;33.71;98687.22;5086510;28;20015;-39
2021/05/20 08:12:53;;;;;;;;;;;;;;;27.57;32.25;98691.66;5086772;28;20035;-38
2021/05/20 08:15:19;;;;;;;;;;;;;;;27.37;32.62;98700.78;5071461;28;20504;-38
2021/05/20 08:17:44;;;;;;;;;;;;;;;27.84;32.07;98703.03;5079591;28;19965;-38
2021/05/20 08:20:10;;;;;;;;;;;;;;;27.81;31.80;98690.03;5091656;28;19924;-39
2021/05/20 08:22:37;;;;;;;;;;;;;;;28.32;30.89;98687.66;5091745;28;19973;-39
2021/05/20 08:25:02;;;;;;;;;;;;;;;26.84;32.56;98695.84;5090877;28;19988;-38
2021/05/20 08:27:28;;;;;;;;;;;;;;;26.06;33.52;98705.50;5089054;28;20361;-37
2021/05/20 08:29:53;;;;;;;;;;;;;;;24.97;33.36;98696.03;5091149;28;20318;-37
2021/05/20 08:32:18;;;;;;;;;;;;;;;24.72;34.13;98717.53;5088517;28;20015;-38
2021/05/20 08:34:44;;;;;;;;;;;;;;;24.85;33.20;98732.06;5091787;28;19920;-38
2021/05/20 08:37:09;;;;;;;;;;;;;;;24.61;31.90;98723.63;5091842;28;19916;-38
2021/05/20 08:39:34;;;;;;;;;;;;;;;24.46;32.15;98716.72;5107562;28;19912;-38
2021/05/20 08:41:59;;;;;;;;;;;;;;;23.94;33.45;98722.91;5090865;28;19965;-38
2021/05/20 08:44:26;;;;;;;;;;;;;;;23.79;34.38;98721.44;5091096;28;19918;-37
2021/05/20 08:46:55;;;;;;;;;;;;;;;23.94;34.31;98731.06;5091195;28;19912;-37
2021/05/20 08:49:20;;;;;;;;;;;;;;;23.98;34.85;98726.59;5122385;27;19961;-37
2021/05/20 08:51:47;;;;;;;;;;;;;;;24.50;34.65;98745.69;5123541;27;20015;-38
2021/05/20 08:54:12;;;;;;;;;;;;;;;24.89;34.33;98740.41;5091185;28;20008;-36
2021/05/20 08:56:38;;;;;;;;;;;;;;;25.38;34.46;98751.00;5090931;28;20324;-38
2021/05/20 08:59:03;;;;;;;;;;;;;;;24.81;34.83;98742.00;5090771;28;19912;-38
2021/05/20 09:01:31;;;;;;;;;;;;;;;25.43;34.15;98757.06;5090638;28;19912;-38
2021/05/20 09:03:57;;;;;;;;;;;;;;;24.69;34.37;98734.47;5090562;28;19912;-38
2021/05/20 09:06:35;;;;;;;;;;;;;;;24.51;34.38;98755.47;5090878;28;19923;-38
2021/05/20 09:09:00;;;;;;;;;;;;;;;24.24;35.04;98753.81;5090707;28;19913;-38
2021/05/20 09:11:26;;;;;;;;;;;;;;;24.58;34.17;98753.06;5090244;28;19916;-38
2021/05/20 09:13:51;;;;;;;;;;;;;;;24.04;33.91;98759.84;5085322;28;19931;-38
2021/05/20 09:16:16;;;;;;;;;;;;;;;24.46;33.53;98771.09;5070033;28;19917;-38
2021/05/20 09:18:42;;;;;;;;;;;;;;;24.36;33.92;98783.09;5072029;28;20606;-38
2021/05/20 09:21:08;;;;;;;;;;;;;;;24.11;33.80;98782.72;5081901;28;19928;-36
2021/05/20 09:23:33;;;;;;;;;;;;;;;24.46;33.80;98781.97;5091710;28;20330;-38
2021/05/20 09:26:03;;;;;;;;;;;;;;;24.00;33.12;98800.44;5090739;28;19912;-37
2021/05/20 09:28:32;;;;;;;;;;;;;;;23.86;32.96;98778.81;5090493;28;19989;-38
2021/05/20 09:30:57;;;;;;;;;;;;;;;23.68;34.06;98788.78;5089416;28;19935;-38
2021/05/20 09:33:23;;;;;;;;;;;;;;;24.17;33.40;98791.53;5089580;28;19912;-38
2021/05/20 09:35:49;;;;;;;;;;;;;;;24.77;32.42;98800.91;5090163;28;19955;-37
2021/05/20 09:38:18;;;;;;;;;;;;;;;24.97;32.60;98800.22;5090347;28;19912;-38
2021/05/20 09:40:44;;;;;;;;;;;;;;;24.82;31.58;98808.09;5090099;28;19912;-37
2021/05/20 09:43:21;;;;;;;;;;;;;;;24.39;32.55;98798.78;5090492;28;19912;-37
2021/05/20 09:45:47;;;;;;;;;;;;;;;24.39;32.91;98801.50;5090281;28;19912;-38
2021/05/20 09:48:13;;;;;;;;;;;;;;;24.08;33.35;98807.00;5090248;28;19912;-36
2021/05/20 09:50:42;;;;;;;;;;;;;;;23.73;33.88;98810.38;5090317;28;19916;-37
2021/05/20 09:53:11;;;;;;;;;;;;;;;23.32;35.23;98825.03;5090076;28;19939;-38
2021/05/20 09:55:42;;;;;;;;;;;;;;;23.32;35.49;98822.31;5090444;28;19923;-37
2021/05/20 09:58:09;;;;;;;;;;;;;;;23.72;35.28;98814.22;5090151;28;19923;-37
2021/05/20 10:00:34;;;;;;;;;;;;;;;22.81;36.51;98818.91;5090231;28;19919;-37
2021/05/20 10:03:06;;;;;;;;;;;;;;;22.80;36.71;98830.84;5090145;28;19916;-37
2021/05/20 10:05:31;;;;;;;;;;;;;;;23.59;35.80;98843.06;5090211;28;19912;-37
2021/05/20 10:07:57;;;;;;;;;;;;;;;22.98;36.26;98820.94;5090205;28;20382;-37
2021/05/20 10:10:22;;;;;;;;;;;;;;;22.78;37.27;98829.56;5089544;28;20030;-38
2021/05/20 10:12:48;;;;;;;;;;;;;;;22.94;36.91;98830.00;5089765;28;20399;-38
2021/05/20 10:15:14;;;;;;;;;;;;;;;22.42;37.41;98827.63;5090110;28;20023;-37
2021/05/20 10:17:40;;;;;;;;;;;;;;;22.86;38.26;98809.03;5093971;28;20363;-37
2021/05/20 10:20:05;;;;;;;;;;;;;;;23.10;37.77;98812.28;5093804;28;19913;-37
2021/05/20 10:22:31;;;;;;;;;;;;;;;22.69;39.99;98805.06;5093562;28;19912;-38
2021/05/20 10:24:57;;;;;;;;;;;;;;;22.68;39.70;98802.69;5093819;28;19912;-37
2021/05/20 10:27:22;;;;;;;;;;;;;;;22.90;39.24;98796.47;5093941;28;20003;-37
2021/05/20 10:29:47;;;;;;;;;;;;;;;23.32;37.94;98797.91;5093653;28;19943;-37
2021/05/20 10:32:13;;;;;;;;;;;;;;;23.10;38.47;98795.19;5092444;28;19916;-38
2021/05/20 10:34:56;;;;;;;;;;;;;;;23.16;38.29;98785.81;5092115;28;20303;-38
2021/05/20 10:37:21;;;;;;;;;;;;;;;22.98;37.11;98780.25;5093518;28;19924;-37
2021/05/20 10:39:47;;;;;;;;;;;;;;;22.88;36.00;98779.69;5091749;28;20532;-37
2021/05/20 10:42:12;;;;;;;;;;;;;;;23.19;35.46;98777.06;5093516;28;19928;-36
2021/05/20 10:44:37;;;;;;;;;;;;;;;23.50;35.90;98770.84;5092150;28;20621;-38
2021/05/20 10:47:03;;;;;;;;;;;;;;;23.43;35.71;98785.63;5092334;28;19912;-38
2021/05/20 10:49:50;;;;;;;;;;;;;;;23.89;33.85;98766.53;5093441;28;20403;-37
2021/05/20 10:52:48;;;;;;;;;;;;;;;22.96;34.60;98779.75;5093400;28;19912;-37
2021/05/20 10:55:14;;;;;;;;;;;;;;;23.14;34.89;98771.75;5081042;28;20303;-36
2021/05/20 10:57:55;;;;;;;;;;;;;;;23.16;34.64;98778.47;5093581;28;19919;-38
2021/05/20 11:00:40;;;;;;;;;;;;;;;23.10;34.62;98778.94;5093396;28;20467;-37
2021/05/20 11:03:06;;;;;;;;;;;;;;;23.43;33.26;98793.00;5093054;28;19978;-38
2021/05/20 11:05:40;;;;;;;;;;;;;;;23.51;33.29;98784.06;5093595;28;19915;-38
2021/05/20 11:08:09;;;;;;;;;;;;;;;23.71;33.48;98787.38;5093169;28;19918;-37
2021/05/20 11:10:35;;;;;;;;;;;;;;;23.18;34.36;98784.38;5093236;28;19912;-37
2021/05/20 11:13:00;;;;;;;;;;;;;;;23.70;33.65;98783.84;5092954;28;19920;-37
2021/05/20 11:15:25;;;;;;;;;;;;;;;24.25;33.18;98773.63;5092742;28;20016;-37
2021/05/20 11:17:51;;;;;;;;;;;;;;;23.95;32.63;98787.00;5093222;28;20006;-37
2021/05/20 11:20:25;;;;;;;;;;;;;;;23.96;32.38;98783.16;5093305;28;19973;-37
2021/05/20 11:23:09;;;;;;;;;;;;;;;24.68;31.85;98770.97;5085770;28;20002;-38
2021/05/20 11:25:34;;;;;;;;;;;;;;;25.24;31.17;98767.56;5093324;28;20321;-38
2021/05/20 11:28:03;;;;;;;;;;;;;;;24.72;31.50;98762.97;5091848;28;19968;-36
2021/05/20 11:30:28;;;;;;;;;;;;;;;24.31;31.40;98754.16;5125430;27;20357;-37
2021/05/20 11:32:58;;;;;;;;;;;;;;;24.50;31.57;98767.44;5093149;28;20342;-38
2021/05/20 11:38:03;;;;;;;;;;;;;;;24.94;30.53;98759.25;5092791;28;20365;-37
2021/05/20 11:40:29;;;;;;;;;;;;;;;25.27;29.76;98761.47;5092456;28;19912;-38
2021/05/20 11:42:55;;;;;;;;;;;;;;;25.40;29.95;98756.94;5092417;28;19913;-37
2021/05/20 11:45:24;;;;;;;;;;;;;;;25.48;29.80;98754.19;5092232;28;20384;-38
2021/05/20 11:47:53;;;;;;;;;;;;;;;25.39;29.51;98758.06;5092224;28;19934;-37
2021/05/20 11:50:18;;;;;;;;;;;;;;;25.27;29.78;98775.88;5092134;28;20311;-37
2021/05/20 11:52:43;;;;;;;;;;;;;;;25.10;29.98;98771.25;5092338;28;19939;-37
2021/05/20 11:55:09;;;;;;;;;;;;;;;24.97;30.22;98759.41;5092060;28;20324;-37
2021/05/20 11:57:34;;;;;;;;;;;;;;;25.11;30.01;98751.09;5092324;28;19912;-37
2021/05/20 11:59:59;;;;;;;;;;;;;;;25.94;29.37;98779.00;5092135;28;19912;-37
2021/05/20 12:02:26;;;;;;;;;;;;;;;25.97;28.43;98767.47;5091885;28;20369;-38
2021/05/20 12:04:58;;;;;;;;;;;;;;;25.34;28.54;98768.03;5091798;28;20244;-37
2021/05/20 12:07:24;;;;;;;;;;;;;;;25.41;28.32;98767.50;5091744;28;19912;-37
2021/05/20 12:09:50;;;;;;;;;;;;;;;25.11;29.83;98770.13;5124546;27;19916;-37
2021/05/20 12:12:16;;;;;;;;;;;;;;;24.38;30.35;98765.31;5091365;28;19916;-37
2021/05/20 12:14:42;;;;;;;;;;;;;;;25.00;29.77;98766.16;5091274;28;19935;-37
2021/05/20 12:17:08;;;;;;;;;;;;;;;25.05;29.59;98765.97;5091181;28;19920;-37
2021/05/20 12:19:35;;;;;;;;;;;;;;;24.79;29.63;98760.56;5091317;28;20272;-37
2021/05/20 12:22:01;;;;;;;;;;;;;;;24.50;29.18;98759.28;5090817;28;19954;-38
2021/05/20 12:24:33;;;;;;;;;;;;;;;24.80;29.55;98772.25;5091199;28;20233;-37
2021/05/20 12:27:28;;;;;;;;;;;;;;;25.14;29.51;98766.75;5090828;28;20383;-36
2021/05/20 12:29:59;;;;;;;;;;;;;;;25.32;29.28;98775.72;5086171;28;19960;-37
2021/05/20 12:32:24;;;;;;;;;;;;;;;26.12;28.28;98772.34;5090983;28;19920;-37
2021/05/20 12:35:08;;;;;;;;;;;;;;;25.70;28.59;98768.66;5091078;28;19920;-37
2021/05/20 12:37:40;;;;;;;;;;;;;;;25.85;28.56;98770.03;5091188;28;19916;-37
2021/05/20 12:40:09;;;;;;;;;;;;;;;26.17;27.81;98784.16;5091206;28;19920;-37
2021/05/20 12:42:34;;;;;;;;;;;;;;;25.98;27.50;98782.66;5090865;28;19995;-37
2021/05/20 12:45:00;;;;;;;;;;;;;;;26.13;27.83;98776.63;5091020;28;19995;-38
2021/05/20 12:47:26;;;;;;;;;;;;;;;26.06;27.22;98776.34;5090701;28;20321;-38
2021/05/20 12:49:57;;;;;;;;;;;;;;;26.07;27.41;98774.44;5090854;28;19923;-38
2021/05/20 12:52:22;;;;;;;;;;;;;;;26.67;26.91;98762.34;5090852;28;20383;-38
2021/05/20 12:54:47;;;;;;;;;;;;;;;26.99;26.18;98773.56;5090957;28;19916;-37
2021/05/20 12:57:13;;;;;;;;;;;;;;;26.23;27.20;98767.28;5090946;28;19924;-38